Time;durP1;ratioP1;P1;durP2;ratioP2;P2;SDS_P1;SDS_P2;PMS_P1;PMS_P2;Temp;Humidity;BMP_temperature;BMP_pressure;BME280_temperature;BME280_humidity;BME280_pressure;Samples;Min_cycle;Max_cycle;Signal;HPM_P1;HPM_P2
2022/02/15 12:33:09;;;;;;;2.10;1.90;;;;;;;;;;6176826;23;20076;-86
2022/02/15 12:35:34;;;;;;;1.65;1.55;;;;;;;;;;6187573;23;20013;-86
2022/02/15 12:37:59;;;;;;;2.10;1.77;;;;;;;;;;6186088;23;20063;-86
2022/02/15 12:40:25;;;;;;;2.03;1.70;;;;;;;;;;6187676;23;20332;-88
2022/02/15 12:42:52;;;;;;;1.98;1.67;;;;;;;;;;6187758;23;20001;-87
2022/02/15 12:45:17;;;;;;;1.70;1.60;;;;;;;;;;6187676;23;20005;-85
2022/02/15 12:47:43;;;;;;;2.17;1.65;;;;;;;;;;6187379;23;20321;-84
2022/02/15 12:50:12;;;;;;;2.22;1.60;;;;;;;;;;6187762;23;20039;-85
2022/02/15 12:52:39;;;;;;;1.67;1.45;;;;;;;;;;6185863;23;20032;-85
2022/02/15 12:55:21;;;;;;;2.10;1.90;;;;;;;;;;6187374;23;20001;-85
2022/02/15 12:57:51;;;;;;;3.03;2.22;;;;;;;;;;6185468;23;20012;-85
2022/02/15 13:00:17;;;;;;;;;;;;;;;;;;6188114;23;20309;-85
2022/02/15 13:02:51;;;;;;;2.80;1.63;;;;;;;;;;6187690;23;20335;-86
2022/02/15 13:05:21;;;;;;;2.92;1.85;;;;;;;;;;6185941;23;20017;-85
2022/02/15 13:07:50;;;;;;;2.42;2.22;;;;;;;;;;6185761;23;20009;-85
2022/02/15 13:10:21;;;;;;;3.60;2.83;;;;;;;;;;6185651;23;20008;-85
2022/02/15 13:12:47;;;;;;;3.63;2.67;;;;;;;;;;6185561;23;20016;-85
2022/02/15 13:15:12;;;;;;;2.20;2.00;;;;;;;;;;6185541;23;20005;-85
2022/02/15 13:17:47;;;;;;;2.03;1.83;;;;;;;;;;6187371;23;20056;-84
2022/02/15 13:20:21;;;;;;;3.05;2.70;;;;;;;;;;6187344;23;20001;-84
2022/02/15 13:22:48;;;;;;;3.20;2.63;;;;;;;;;;6187025;23;20336;-84
2022/02/15 13:25:14;;;;;;;2.83;2.45;;;;;;;;;;6187233;23;20001;-85
2022/02/15 13:27:41;;;;;;;2.70;2.10;;;;;;;;;;6187050;23;19998;-85
2022/02/15 13:30:26;;;;;;;2.50;2.30;;;;;;;;;;6185541;23;20005;-85
2022/02/15 13:33:01;;;;;;;3.17;2.85;;;;;;;;;;6186984;23;20069;-85
2022/02/15 13:35:27;;;;;;;3.50;2.83;;;;;;;;;;6185449;23;20096;-85
2022/02/15 13:37:59;;;;;;;2.90;2.55;;;;;;;;;;6185277;23;20032;-85
2022/02/15 13:40:26;;;;;;;2.30;2.10;;;;;;;;;;6185425;23;20424;-85
2022/02/15 13:42:52;;;;;;;6.18;3.47;;;;;;;;;;6186986;23;20135;-85
2022/02/15 13:45:18;;;;;;;3.70;2.70;;;;;;;;;;6185339;23;20004;-85
2022/02/15 13:47:44;;;;;;;3.15;2.60;;;;;;;;;;6185430;23;20008;-85
2022/02/15 13:50:10;;;;;;;2.75;2.15;;;;;;;;;;6185365;23;20369;-85
2022/02/15 13:52:36;;;;;;;2.53;2.33;;;;;;;;;;6185234;23;20009;-85
2022/02/15 13:55:05;;;;;;;4.88;2.15;;;;;;;;;;6186823;23;20008;-85
2022/02/15 13:57:31;;;;;;;3.05;2.75;;;;;;;;;;6187063;23;20001;-85
2022/02/15 13:59:56;;;;;;;15.82;14.43;;;;;;;;;;6186782;23;20004;-85
2022/02/15 14:02:23;;;;;;;3.30;3.00;;;;;;;;;;6186682;23;20013;-85
2022/02/15 14:04:49;;;;;;;3.75;3.25;;;;;;;;;;6184870;23;20009;-85
2022/02/15 14:07:14;;;;;;;6.07;4.93;;;;;;;;;;6186835;23;20040;-85
2022/02/15 14:09:41;;;;;;;5.88;4.35;;;;;;;;;;6185228;23;20379;-85
2022/02/15 14:12:06;;;;;;;3.90;3.47;;;;;;;;;;6184973;23;20043;-85
2022/02/15 14:14:32;;;;;;;2.80;2.55;;;;;;;;;;6184892;23;20341;-85
2022/02/15 14:19:42;;;;;;;4.75;2.92;;;;;;;;;;6186875;23;20017;-85
2022/02/15 14:22:08;;;;;;;3.28;2.40;;;;;;;;;;6186546;23;20005;-85
2022/02/15 14:24:33;;;;;;;3.17;2.50;;;;;;;;;;6185064;23;20075;-85
2022/02/15 14:26:58;;;;;;;2.50;2.28;;;;;;;;;;6186622;23;20031;-85
2022/02/15 14:29:24;;;;;;;2.92;2.40;;;;;;;;;;6184949;23;20091;-85
2022/02/15 14:31:50;;;;;;;2.92;2.42;;;;;;;;;;6186350;23;20019;-85
2022/02/15 14:34:15;;;;;;;6.97;4.75;;;;;;;;;;6186768;23;20001;-85
2022/02/15 14:36:41;;;;;;;3.47;2.40;;;;;;;;;;6186469;23;20001;-86
2022/02/15 14:39:06;;;;;;;3.83;2.90;;;;;;;;;;6186230;23;20001;-85
2022/02/15 14:41:33;;;;;;;3.60;2.20;;;;;;;;;;6186642;23;20005;-85
2022/02/15 14:43:58;;;;;;;2.28;1.73;;;;;;;;;;6184769;23;20012;-85
2022/02/15 14:46:23;;;;;;;5.68;2.20;;;;;;;;;;6187255;23;20005;-85
2022/02/15 14:48:51;;;;;;;2.75;2.30;;;;;;;;;;6186522;23;20009;-85
2022/02/15 14:51:16;;;;;;;1.48;1.38;;;;;;;;;;6184889;23;20438;-86
2022/02/15 14:53:41;;;;;;;3.40;1.90;;;;;;;;;;6186743;23;20075;-86
2022/02/15 14:56:07;;;;;;;2.28;2.05;;;;;;;;;;6186790;23;20071;-86
2022/02/15 14:58:37;;;;;;;5.90;2.97;;;;;;;;;;6186484;23;20001;-86
2022/02/15 15:01:04;;;;;;;4.25;3.85;;;;;;;;;;6185045;23;20009;-86
2022/02/15 15:03:30;;;;;;;2.00;1.80;;;;;;;;;;6184868;23;20011;-87
2022/02/15 15:05:56;;;;;;;1.90;1.52;;;;;;;;;;6186540;23;20005;-86
2022/02/15 15:08:22;;;;;;;2.00;1.70;;;;;;;;;;6186269;23;20008;-86
2022/02/15 15:10:47;;;;;;;1.67;1.35;;;;;;;;;;6186867;23;20001;-85
2022/02/15 15:13:13;;;;;;;5.28;1.75;;;;;;;;;;6186322;23;20005;-85
2022/02/15 15:15:39;;;;;;;1.50;1.20;;;;;;;;;;6184595;23;20009;-85
2022/02/15 15:18:04;;;;;;;1.77;1.67;;;;;;;;;;6186006;23;20009;-85
2022/02/15 15:20:30;;;;;;;1.60;1.50;;;;;;;;;;6184580;23;20008;-86
2022/02/15 15:22:55;;;;;;;1.35;1.25;;;;;;;;;;6186160;23;20008;-86
2022/02/15 15:25:21;;;;;;;2.28;1.55;;;;;;;;;;6186118;23;20321;-86
2022/02/15 15:27:49;;;;;;;1.60;1.42;;;;;;;;;;6184763;23;20091;-86
2022/02/15 15:30:17;;;;;;;10.02;5.68;;;;;;;;;;6186186;23;20032;-86
2022/02/15 15:32:42;;;;;;;4.10;2.92;;;;;;;;;;6186061;23;20021;-87
2022/02/15 15:35:11;;;;;;;1.70;1.60;;;;;;;;;;6185852;23;20056;-85
2022/02/15 15:37:37;;;;;;;1.60;1.50;;;;;;;;;;6209376;23;20344;-85
2022/02/15 15:40:08;;;;;;;2.90;1.55;;;;;;;;;;6184514;23;20336;-85
2022/02/15 15:42:34;;;;;;;1.98;1.67;;;;;;;;;;6184357;23;20433;-86
2022/02/15 15:45:00;;;;;;;5.40;4.82;;;;;;;;;;6184340;23;20008;-86
2022/02/15 15:47:28;;;;;;;2.80;2.08;;;;;;;;;;6186198;23;20377;-86
2022/02/15 15:49:53;;;;;;;2.58;2.38;;;;;;;;;;6183431;23;20425;-85
2022/02/15 15:52:21;;;;;;;2.42;2.22;;;;;;;;;;6185899;23;20007;-85
2022/02/15 15:54:48;;;;;;;3.08;2.88;;;;;;;;;;6185957;23;20180;-85
2022/02/15 15:57:14;;;;;;;1.80;1.70;;;;;;;;;;6185877;23;20524;-85
2022/02/15 15:59:39;;;;;;;1.80;1.70;;;;;;;;;;6185969;23;20001;-85
2022/02/15 16:02:06;;;;;;;1.65;1.55;;;;;;;;;;6185674;23;20377;-85
2022/02/15 16:04:31;;;;;;;1.88;1.27;;;;;;;;;;6185881;23;20001;-85
2022/02/15 16:06:59;;;;;;;2.45;1.60;;;;;;;;;;6184401;23;20052;-85
2022/02/15 16:09:25;;;;;;;3.88;2.05;;;;;;;;;;6184180;23;20009;-85
2022/02/15 16:11:50;;;;;;;1.50;1.40;;;;;;;;;;6185782;23;20025;-85
2022/02/15 16:14:16;;;;;;;3.58;2.47;;;;;;;;;;6185823;23;20045;-85
2022/02/15 16:16:43;;;;;;;2.85;2.00;;;;;;;;;;6184265;23;20013;-85
2022/02/15 16:19:10;;;;;;;1.65;1.38;;;;;;;;;;6185751;23;20000;-85
2022/02/15 16:21:36;;;;;;;2.00;1.80;;;;;;;;;;6185828;23;20091;-85
2022/02/15 16:24:03;;;;;;;1.83;1.48;;;;;;;;;;6185810;23;20001;-84
2022/02/15 16:26:30;;;;;;;2.08;1.70;;;;;;;;;;6185854;23;20032;-84
2022/02/15 16:28:56;;;;;;;2.45;2.20;;;;;;;;;;6185949;23;20004;-84
2022/02/15 16:31:24;;;;;;;4.40;4.00;;;;;;;;;;6185662;23;20005;-84
2022/02/15 16:33:49;;;;;;;5.50;4.28;;;;;;;;;;6187723;23;20008;-85
2022/02/15 16:36:15;;;;;;;2.17;1.83;;;;;;;;;;6187878;23;20009;-86
2022/02/15 16:38:41;;;;;;;2.03;1.83;;;;;;;;;;6186253;23;20333;-86
2022/02/15 16:41:06;;;;;;;2.03;1.83;;;;;;;;;;6187735;23;19993;-86
2022/02/15 16:43:32;;;;;;;1.42;1.33;;;;;;;;;;6187672;23;20009;-86
2022/02/15 16:46:00;;;;;;;2.20;1.48;;;;;;;;;;6187334;23;20372;-85
2022/02/15 16:48:26;;;;;;;2.08;1.88;;;;;;;;;;6187620;23;19997;-85
2022/02/15 16:50:52;;;;;;;2.08;1.88;;;;;;;;;;6187698;23;20433;-86
2022/02/15 16:53:17;;;;;;;2.00;1.80;;;;;;;;;;6185886;23;20001;-86
2022/02/15 16:55:43;;;;;;;2.42;1.85;;;;;;;;;;6187916;23;20413;-85
2022/02/15 16:58:08;;;;;;;1.75;1.40;;;;;;;;;;6186168;23;20044;-85
2022/02/15 17:00:33;;;;;;;2.55;1.50;;;;;;;;;;6185812;23;20413;-85
2022/02/15 17:02:59;;;;;;;2.05;1.90;;;;;;;;;;6187839;23;20001;-86
2022/02/15 17:05:24;;;;;;;1.90;1.70;;;;;;;;;;6186387;23;20076;-85
2022/02/15 17:07:50;;;;;;;1.50;1.40;;;;;;;;;;6188393;23;20008;-85
2022/02/15 17:10:15;;;;;;;1.63;1.20;;;;;;;;;;6187700;23;20424;-85
2022/02/15 17:12:41;;;;;;;2.70;2.50;;;;;;;;;;6186051;23;20001;-85
2022/02/15 17:15:08;;;;;;;2.30;1.88;;;;;;;;;;6185899;23;20009;-85
2022/02/15 17:17:33;;;;;;;1.92;1.80;;;;;;;;;;6188367;23;20001;-83
2022/02/15 17:19:59;;;;;;;2.25;1.27;;;;;;;;;;6188872;23;20008;-94
2022/02/15 17:22:24;;;;;;;2.00;1.33;;;;;;;;;;6188622;23;20080;-93
2022/02/15 17:24:50;;;;;;;8.13;1.63;;;;;;;;;;6187274;23;20008;-94
2022/02/15 17:27:15;;;;;;;1.70;1.58;;;;;;;;;;6188673;23;20005;-93
2022/02/15 17:29:42;;;;;;;2.10;1.90;;;;;;;;;;6186900;23;20080;-94
2022/02/15 17:32:10;;;;;;;2.65;1.58;;;;;;;;;;6187557;23;20075;-93
2022/02/15 17:34:37;;;;;;;3.38;2.90;;;;;;;;;;6187612;23;20017;-92
2022/02/15 17:37:03;;;;;;;4.32;3.15;;;;;;;;;;6186589;23;20047;-92
2022/02/15 17:39:29;;;;;;;3.40;2.40;;;;;;;;;;6186746;23;20005;-93
2022/02/15 17:41:55;;;;;;;1.52;1.40;;;;;;;;;;6186981;23;20120;-91
2022/02/15 17:44:21;;;;;;;2.35;1.80;;;;;;;;;;6192018;23;20005;-91
2022/02/15 17:46:47;;;;;;;3.50;2.65;;;;;;;;;;6187235;23;20397;-89
2022/02/15 17:49:13;;;;;;;1.98;1.70;;;;;;;;;;6185954;23;20012;-89
2022/02/15 17:51:38;;;;;;;2.60;1.60;;;;;;;;;;6185957;23;20000;-89
2022/02/15 17:54:04;;;;;;;1.92;1.65;;;;;;;;;;6187591;23;20005;-90
2022/02/15 17:56:31;;;;;;;1.77;1.45;;;;;;;;;;6186274;23;20080;-90
2022/02/15 17:58:58;;;;;;;1.90;1.60;;;;;;;;;;6186393;23;20013;-89
2022/02/15 18:01:23;;;;;;;2.83;1.92;;;;;;;;;;6186747;23;20005;-90
2022/02/15 18:03:49;;;;;;;3.38;2.97;;;;;;;;;;6185804;23;20421;-90
2022/02/15 18:06:14;;;;;;;2.33;2.10;;;;;;;;;;6186039;23;20031;-90
2022/02/15 18:08:45;;;;;;;3.08;2.25;;;;;;;;;;6185789;23;20059;-92
2022/02/15 18:11:14;;;;;;;2.88;1.80;;;;;;;;;;6185520;23;20056;-92
2022/02/15 18:13:39;;;;;;;10.05;4.63;;;;;;;;;;6187570;23;20417;-89
2022/02/15 18:16:05;;;;;;;2.15;1.95;;;;;;;;;;6185472;23;20087;-92
2022/02/15 18:18:31;;;;;;;1.70;1.60;;;;;;;;;;6185985;23;20091;-95
2022/02/15 18:20:56;;;;;;;8.18;5.25;;;;;;;;;;6186310;23;20024;-92
2022/02/15 18:23:22;;;;;;;8.27;5.10;;;;;;;;;;6188184;23;20005;-90
2022/02/15 18:25:48;;;;;;;4.18;3.00;;;;;;;;;;6186267;23;20428;-91
2022/02/15 18:28:13;;;;;;;2.88;2.58;;;;;;;;;;6186315;23;20005;-95
2022/02/15 18:30:39;;;;;;;2.70;2.45;;;;;;;;;;6187784;23;20001;-90
2022/02/15 18:33:04;;;;;;;3.85;3.45;;;;;;;;;;6186892;23;20448;-90
2022/02/15 18:35:30;;;;;;;4.07;3.50;;;;;;;;;;6187034;23;20009;-90
2022/02/15 18:37:56;;;;;;;6.18;3.35;;;;;;;;;;6185216;23;20388;-88
2022/02/15 18:40:21;;;;;;;4.07;2.58;;;;;;;;;;6184918;23;20329;-87
2022/02/15 18:42:47;;;;;;;2.80;2.53;;;;;;;;;;6186653;23;20009;-88
2022/02/15 18:45:15;;;;;;;3.35;2.80;;;;;;;;;;6186597;23;20055;-89
2022/02/15 18:47:41;;;;;;;4.30;2.92;;;;;;;;;;6185141;23;20008;-88
2022/02/15 18:50:08;;;;;;;3.67;2.65;;;;;;;;;;6185409;23;20016;-91
2022/02/15 18:52:33;;;;;;;4.90;2.58;;;;;;;;;;6185765;23;20007;-93
2022/02/15 18:55:02;;;;;;;4.05;3.05;;;;;;;;;;6188837;23;20005;-96
2022/02/15 18:57:28;;;;;;;3.00;2.70;;;;;;;;;;6191810;23;20015;-94
2022/02/15 18:59:56;;;;;;;3.00;2.70;;;;;;;;;;6187057;23;20036;-91
2022/02/15 19:02:22;;;;;;;4.30;3.42;;;;;;;;;;6185555;23;20032;-91
2022/02/15 19:04:48;;;;;;;3.90;3.50;;;;;;;;;;6188574;23;20093;-95
2022/02/15 19:07:14;;;;;;;3.20;2.90;;;;;;;;;;6193543;23;20008;-93
2022/02/15 19:09:39;;;;;;;5.38;3.10;;;;;;;;;;6188045;23;20063;-96
2022/02/15 19:14:31;;;;;;;3.17;2.72;;;;;;;;;;6163196;23;20029;-91
2022/02/15 19:16:58;;;;;;;3.08;2.78;;;;;;;;;;6131138;23;20021;-91
2022/02/15 19:19:25;;;;;;;3.45;2.70;;;;;;;;;;6132324;23;20032;-91
2022/02/15 19:21:51;;;;;;;2.95;2.67;;;;;;;;;;6126101;23;20088;-95
2022/02/15 19:24:17;;;;;;;3.30;3.00;;;;;;;;;;6102494;23;20303;-91
2022/02/15 19:26:43;;;;;;;3.80;3.42;;;;;;;;;;6103371;23;20006;-91
2022/02/15 19:29:10;;;;;;;6.75;4.60;;;;;;;;;;6102316;23;20006;-96
2022/02/15 19:31:36;;;;;;;6.90;4.55;;;;;;;;;;6103273;23;20012;-95
2022/02/15 19:34:03;;;;;;;5.28;4.75;;;;;;;;;;6126710;23;20063;-96
2022/02/15 19:36:28;;;;;;;5.57;5.00;;;;;;;;;;6102180;23;20016;-96
2022/02/15 19:38:55;;;;;;;4.95;4.40;;;;;;;;;;6102267;23;20089;-96
2022/02/15 19:41:25;;;;;;;4.90;3.95;;;;;;;;;;6102427;23;20014;-91
2022/02/15 19:43:52;;;;;;;3.97;3.58;;;;;;;;;;6101462;23;20032;-92
2022/02/15 19:46:17;;;;;;;5.13;4.35;;;;;;;;;;6104279;23;20010;-91
2022/02/15 19:48:42;;;;;;;5.35;4.03;;;;;;;;;;6105699;23;20017;-92
2022/02/15 19:51:08;;;;;;;5.72;4.22;;;;;;;;;;6126025;23;20006;-91
2022/02/15 19:53:33;;;;;;;3.90;3.50;;;;;;;;;;6127194;23;20092;-96
2022/02/15 19:55:59;;;;;;;6.10;4.40;;;;;;;;;;6125696;23;20008;-92
2022/02/15 19:58:25;;;;;;;3.92;3.50;;;;;;;;;;6101826;23;20101;-92
2022/02/15 20:00:51;;;;;;;4.82;3.83;;;;;;;;;;6102237;23;20441;-93
2022/02/15 20:03:16;;;;;;;4.80;3.92;;;;;;;;;;6101816;23;20016;-94
2022/02/15 20:05:42;;;;;;;5.32;4.05;;;;;;;;;;6126976;23;20014;-93
2022/02/15 20:08:07;;;;;;;4.40;4.00;;;;;;;;;;6128287;23;20437;-92
2022/02/15 20:10:33;;;;;;;5.15;4.63;;;;;;;;;;6128528;23;20010;-95
2022/02/15 20:13:01;;;;;;;6.45;5.03;;;;;;;;;;6107133;23;20081;-90
2022/02/15 20:15:27;;;;;;;5.68;4.78;;;;;;;;;;6131177;23;20006;-96
2022/02/15 20:17:52;;;;;;;6.30;4.10;;;;;;;;;;6153334;23;20081;-94
2022/02/15 20:20:18;;;;;;;5.22;4.20;;;;;;;;;;6154355;23;20445;-91
2022/02/15 20:22:44;;;;;;;4.60;3.83;;;;;;;;;;6155260;23;20013;-91
2022/02/15 20:25:10;;;;;;;5.40;4.30;;;;;;;;;;6136430;23;20006;-96
2022/02/15 20:27:40;;;;;;;4.85;4.15;;;;;;;;;;6160225;23;20028;-92
2022/02/15 20:30:10;;;;;;;6.00;4.15;;;;;;;;;;6157742;23;20012;-92
2022/02/15 20:32:37;;;;;;;4.88;3.88;;;;;;;;;;6155426;23;20016;-91
2022/02/15 20:35:03;;;;;;;3.97;3.40;;;;;;;;;;6154506;23;20009;-92
2022/02/15 20:37:29;;;;;;;4.65;3.75;;;;;;;;;;6154367;23;20341;-95
2022/02/15 20:39:54;;;;;;;5.22;4.00;;;;;;;;;;6154059;23;20782;-91
2022/02/15 20:42:20;;;;;;;18.40;7.80;;;;;;;;;;6152583;23;20006;-93
2022/02/15 20:44:48;;;;;;;16.20;9.65;;;;;;;;;;6153588;23;20006;-94
2022/02/15 20:47:14;;;;;;;11.82;7.43;;;;;;;;;;6128703;23;20126;-93
2022/02/15 20:49:39;;;;;;;8.30;5.78;;;;;;;;;;6153033;23;20008;-94
2022/02/15 20:52:07;;;;;;;6.57;5.57;;;;;;;;;;6153202;23;20430;-93
2022/02/15 20:54:38;;;;;;;8.48;6.03;;;;;;;;;;6152575;23;19998;-94
2022/02/15 20:57:05;;;;;;;7.70;5.50;;;;;;;;;;6153029;23;20017;-91
2022/02/15 20:59:31;;;;;;;7.07;4.80;;;;;;;;;;6156500;23;20426;-93
2022/02/15 21:01:56;;;;;;;7.43;5.57;;;;;;;;;;6152904;23;20016;-96
2022/02/15 21:04:22;;;;;;;6.70;4.63;;;;;;;;;;6156228;23;20010;-96
2022/02/15 21:06:48;;;;;;;5.68;4.00;;;;;;;;;;6164149;23;20002;-93
2022/02/15 21:09:14;;;;;;;3.60;3.13;;;;;;;;;;6107318;23;20006;-94
2022/02/15 21:11:40;;;;;;;7.00;4.50;;;;;;;;;;6165848;23;20017;-96
2022/02/15 21:14:05;;;;;;;6.80;4.72;;;;;;;;;;6140698;23;20018;-93
2022/02/15 21:16:31;;;;;;;5.05;4.20;;;;;;;;;;6131988;23;20020;-96
2022/02/15 21:19:02;;;;;;;5.10;4.57;;;;;;;;;;6117517;23;20060;-93
2022/02/15 21:21:27;;;;;;;4.70;3.38;;;;;;;;;;6127588;23;20013;-93
2022/02/15 21:23:56;;;;;;;9.75;7.57;;;;;;;;;;6127479;23;20006;-95
2022/02/15 21:26:23;;;;;;;7.68;5.22;;;;;;;;;;6127201;23;20088;-92
2022/02/15 21:28:48;;;;;;;18.77;11.45;;;;;;;;;;6102747;23;20034;-94
2022/02/15 21:31:14;;;;;;;7.40;5.80;;;;;;;;;;6127494;23;20017;-96
2022/02/15 21:33:39;;;;;;;6.07;4.60;;;;;;;;;;6127518;23;20044;-92
2022/02/15 21:36:05;;;;;;;8.85;6.38;;;;;;;;;;6127130;23;20006;-92
2022/02/15 21:38:32;;;;;;;6.97;4.60;;;;;;;;;;6102658;23;20329;-93
2022/02/15 21:40:58;;;;;;;4.38;3.95;;;;;;;;;;6127132;23;20014;-92
2022/02/15 21:43:23;;;;;;;6.45;5.32;;;;;;;;;;6127384;23;20067;-93
2022/02/15 21:45:50;;;;;;;5.25;4.50;;;;;;;;;;6127633;23;20010;-93
2022/02/15 21:48:15;;;;;;;4.82;4.10;;;;;;;;;;6127477;23;20101;-93
2022/02/15 21:50:41;;;;;;;6.30;4.55;;;;;;;;;;6102772;23;20057;-93
2022/02/15 21:53:08;;;;;;;6.30;4.93;;;;;;;;;;6135589;23;20314;-93
2022/02/15 21:55:36;;;;;;;5.88;5.28;;;;;;;;;;6136430;23;20053;-96
2022/02/15 21:58:02;;;;;;;6.65;5.15;;;;;;;;;;6141881;23;20393;-96
2022/02/15 22:00:31;;;;;;;7.13;5.22;;;;;;;;;;6121260;23;20006;-96
2022/02/15 22:02:57;;;;;;;6.88;5.60;;;;;;;;;;6143151;23;20010;-95
2022/02/15 22:05:26;;;;;;;7.28;5.82;;;;;;;;;;6149292;23;20016;-96
2022/02/15 22:07:51;;;;;;;7.00;5.50;;;;;;;;;;6181644;23;20081;-96
2022/02/15 22:10:17;;;;;;;6.85;4.70;;;;;;;;;;6174721;23;20014;-97
2022/02/15 22:12:45;;;;;;;8.63;5.70;;;;;;;;;;6170717;23;20010;-96
2022/02/15 22:15:12;;;;;;;6.40;5.40;;;;;;;;;;6155431;23;20006;-96
2022/02/15 22:17:39;;;;;;;5.30;4.75;;;;;;;;;;6128571;23;20092;-92
2022/02/15 22:20:07;;;;;;;5.25;4.25;;;;;;;;;;6152261;23;20010;-95
2022/02/15 22:22:34;;;;;;;6.78;4.78;;;;;;;;;;6152249;23;20002;-94
2022/02/15 22:24:59;;;;;;;5.22;4.63;;;;;;;;;;6152732;23;20040;-94
2022/02/15 22:27:25;;;;;;;6.03;4.97;;;;;;;;;;6127295;23;20437;-96
2022/02/15 22:29:51;;;;;;;5.03;4.20;;;;;;;;;;6126258;23;20006;-96
2022/02/15 22:32:18;;;;;;;6.03;4.45;;;;;;;;;;6127290;23;20009;-96
2022/02/15 22:34:43;;;;;;;8.30;5.90;;;;;;;;;;6127815;23;20006;-93
2022/02/15 22:37:09;;;;;;;10.90;9.02;;;;;;;;;;6127156;23;20005;-96
2022/02/15 22:39:34;;;;;;;9.85;8.82;;;;;;;;;;6127462;23;20020;-95
2022/02/15 22:42:00;;;;;;;11.02;9.30;;;;;;;;;;6127045;23;20053;-92
2022/02/15 22:44:25;;;;;;;15.50;11.55;;;;;;;;;;6127379;23;20389;-93
2022/02/15 22:46:53;;;;;;;14.55;11.43;;;;;;;;;;6127265;23;20029;-92
2022/02/15 22:49:37;;;;;;;15.25;11.77;;;;;;;;;;6127425;23;20085;-95
2022/02/15 22:52:08;;;;;;;12.50;9.98;;;;;;;;;;6128161;23;20381;-93
2022/02/15 22:54:35;;;;;;;12.00;9.32;;;;;;;;;;6130328;23;20006;-93
2022/02/15 22:57:02;;;;;;;10.18;8.52;;;;;;;;;;6128231;23;20013;-93
2022/02/15 22:59:28;;;;;;;13.70;8.57;;;;;;;;;;6128322;23;20499;-93
2022/02/15 23:01:54;;;;;;;11.30;8.55;;;;;;;;;;6130802;23;20121;-92
2022/02/15 23:04:19;;;;;;;10.85;8.77;;;;;;;;;;6132846;23;20002;-96
2022/02/15 23:17:59;;;;;;;5.55;4.72;;;;;;;;;;6099169;23;20042;-94
2022/02/15 23:20:36;;;;;;;6.40;5.47;;;;;;;;;;6073392;23;20017;-92
